Time;durP1;ratioP1;P1;durP2;ratioP2;P2;SDS_P1;SDS_P2;PMS_P1;PMS_P2;Temp;Humidity;BMP_temperature;BMP_pressure;BME280_temperature;BME280_humidity;BME280_pressure;Samples;Min_cycle;Max_cycle;Signal;HPM_P1;HPM_P2
2022/08/21 00:02:03;;;;;;;10.03;3.23;;;;;;;13.49;98.10;101606.31;5032266;28;20128;-81
2022/08/21 00:04:30;;;;;;;7.00;3.20;;;;;;;13.41;97.75;101607.63;5050001;28;20071;-80
2022/08/21 00:06:59;;;;;;;6.50;3.10;;;;;;;13.32;98.75;101593.00;5049895;28;20029;-81
2022/08/21 00:09:24;;;;;;;5.80;2.90;;;;;;;13.32;98.42;101601.06;5050060;28;20033;-81
2022/08/21 00:11:50;;;;;;;6.18;3.08;;;;;;;13.33;98.29;101605.34;5049090;28;20032;-81
2022/08/21 00:14:16;;;;;;;5.90;3.23;;;;;;;13.27;98.48;101592.94;5050004;28;20112;-80
2022/08/21 00:16:41;;;;;;;6.67;2.90;;;;;;;13.21;98.81;101599.34;5049587;28;20406;-80
2022/08/21 00:19:08;;;;;;;8.57;2.97;;;;;;;13.16;98.98;101590.16;5050429;28;20045;-80
2022/08/21 00:21:35;;;;;;;2.93;2.63;;;;;;;13.22;98.81;101587.50;5049281;28;20377;-80
2022/08/21 00:24:00;;;;;;;5.70;2.70;;;;;;;13.20;99.23;101595.03;5049784;28;20021;-80
2022/08/21 00:26:26;;;;;;;3.78;2.72;;;;;;;13.15;99.20;101587.72;5031841;28;20527;-80
2022/08/21 00:28:52;;;;;;;7.50;2.80;;;;;;;13.11;98.99;101587.44;5049498;28;20029;-80
2022/08/21 00:31:17;;;;;;;7.75;2.72;;;;;;;13.02;98.78;101587.09;5049069;28;20036;-80
2022/08/21 00:33:44;;;;;;;4.43;2.90;;;;;;;13.02;99.21;101595.16;5053147;28;20021;-81
2022/08/21 00:36:10;;;;;;;6.20;2.80;;;;;;;12.97;99.62;101580.84;5053718;28;20024;-80
2022/08/21 00:38:36;;;;;;;4.32;3.05;;;;;;;12.95;100.00;101580.31;5053996;28;20029;-80
2022/08/21 00:41:03;;;;;;;5.05;2.83;;;;;;;12.98;99.30;101587.84;5053080;28;20025;-81
2022/08/21 00:43:33;;;;;;;3.30;2.70;;;;;;;12.94;99.73;101581.38;5054017;28;20028;-80
2022/08/21 00:45:58;;;;;;;7.37;2.90;;;;;;;12.86;99.56;101572.69;5053418;28;20042;-81
2022/08/21 00:48:24;;;;;;;6.77;2.70;;;;;;;12.90;99.37;101585.63;5053515;28;20498;-80
2022/08/21 00:51:13;;;;;;;4.63;3.08;;;;;;;12.84;98.86;101582.88;5034627;28;20108;-80
2022/08/21 00:53:43;;;;;;;6.65;3.00;;;;;;;12.79;99.55;101574.75;5053026;28;20036;-80
2022/08/21 00:56:10;;;;;;;3.70;2.55;;;;;;;12.74;99.27;101582.78;5053765;28;20440;-80
2022/08/21 00:58:38;;;;;;;4.40;2.80;;;;;;;12.70;99.66;101576.28;5053406;28;20077;-81
2022/08/21 01:01:06;;;;;;;5.47;2.87;;;;;;;12.69;100.00;101578.16;5052325;28;20276;-80
2022/08/21 01:03:32;;;;;;;4.05;2.90;;;;;;;12.69;100.00;101572.78;5053281;28;20017;-80
2022/08/21 01:05:57;;;;;;;4.72;3.20;;;;;;;12.68;100.00;101583.78;5053136;28;20029;-80
2022/08/21 01:08:24;;;;;;;8.18;2.95;;;;;;;12.62;100.00;101582.13;5053061;28;20528;-80
2022/08/21 01:10:52;;;;;;;8.38;3.47;;;;;;;12.57;100.00;101582.88;5052404;28;20021;-80
2022/08/21 01:13:24;;;;;;;6.50;3.58;;;;;;;12.56;100.00;101582.06;5053363;28;20079;-80
2022/08/21 01:15:51;;;;;;;7.07;3.47;;;;;;;12.51;100.00;101584.69;5052877;28;20033;-81
2022/08/21 01:18:18;;;;;;;7.10;3.80;;;;;;;12.42;100.00;101580.81;5053353;28;20469;-80
2022/08/21 01:21:16;;;;;;;8.63;3.83;;;;;;;12.49;100.00;101594.09;5052256;28;20542;-80
2022/08/21 01:23:44;;;;;;;6.00;3.60;;;;;;;12.43;100.00;101587.81;5052728;28;20272;-81
2022/08/21 01:26:11;;;;;;;8.48;4.07;;;;;;;12.41;100.00;101580.03;5052993;28;20428;-81
2022/08/21 01:28:41;;;;;;;7.07;4.15;;;;;;;12.39;100.00;101574.09;5052877;28;20427;-81
2022/08/21 01:31:10;;;;;;;7.25;4.43;;;;;;;12.37;100.00;101572.72;5051387;28;20109;-81
2022/08/21 01:33:36;;;;;;;6.55;4.10;;;;;;;12.33;100.00;101571.59;5035382;28;20033;-81
2022/08/21 01:36:02;;;;;;;9.88;4.10;;;;;;;12.32;100.00;101570.81;5052798;28;20037;-81
2022/08/21 01:38:28;;;;;;;8.75;4.20;;;;;;;12.25;100.00;101570.97;5053046;28;20040;-81
2022/08/21 01:40:53;;;;;;;7.35;4.07;;;;;;;12.29;100.00;101570.47;5051777;28;20527;-81
2022/08/21 01:43:19;;;;;;;9.53;4.10;;;;;;;12.29;100.00;101582.03;5052420;28;20029;-81
2022/08/21 01:45:44;;;;;;;10.63;4.17;;;;;;;12.24;100.00;101574.72;5052135;28;20029;-83
2022/08/21 01:48:10;;;;;;;7.67;4.07;;;;;;;12.25;100.00;101573.66;5052908;28;20403;-81
2022/08/21 01:50:36;;;;;;;7.00;3.97;;;;;;;12.21;100.00;101575.25;5052084;28;20308;-81
2022/08/21 01:53:01;;;;;;;6.00;3.70;;;;;;;12.21;100.00;101577.09;5052602;28;20055;-81
2022/08/21 01:55:27;;;;;;;8.47;4.10;;;;;;;12.16;100.00;101568.97;5052199;28;20139;-81
2022/08/21 01:57:52;;;;;;;7.20;3.97;;;;;;;12.16;100.00;101574.34;5052141;28;20039;-81
2022/08/21 02:00:22;;;;;;;8.63;3.60;;;;;;;12.13;100.00;101564.13;5052085;28;20052;-81
2022/08/21 02:02:48;;;;;;;6.00;3.47;;;;;;;12.11;100.00;101567.88;5034140;28;20017;-81
2022/08/21 02:05:14;;;;;;;5.95;3.75;;;;;;;12.12;100.00;101568.66;5052696;28;20036;-81
2022/08/21 02:07:43;;;;;;;6.32;3.28;;;;;;;12.09;100.00;101561.09;5051817;28;20025;-81
2022/08/21 02:10:11;;;;;;;6.55;3.30;;;;;;;12.10;100.00;101562.72;5051503;28;20033;-81
2022/08/21 02:12:36;;;;;;;6.18;3.63;;;;;;;12.06;100.00;101550.84;5050834;28;20480;-81
2022/08/21 02:15:05;;;;;;;7.73;3.80;;;;;;;12.04;100.00;101551.09;5034115;28;20082;-81
2022/08/21 02:17:38;;;;;;;10.13;3.72;;;;;;;12.00;100.00;101551.88;5051839;28;20056;-81
2022/08/21 02:20:04;;;;;;;6.80;3.60;;;;;;;11.92;100.00;101548.50;5034247;28;20037;-81
2022/08/21 02:22:29;;;;;;;8.18;3.78;;;;;;;11.91;100.00;101543.41;5051927;28;20021;-81
2022/08/21 02:24:55;;;;;;;6.67;3.77;;;;;;;11.91;100.00;101538.81;5051779;28;20025;-81
2022/08/21 02:27:21;;;;;;;4.43;3.60;;;;;;;11.90;100.00;101547.94;5051878;28;20029;-81
2022/08/21 02:29:47;;;;;;;6.88;3.40;;;;;;;11.86;100.00;101544.16;5051060;28;20121;-81
2022/08/21 02:32:12;;;;;;;8.63;3.83;;;;;;;11.78;100.00;101545.38;5051163;28;20436;-81
2022/08/21 02:34:37;;;;;;;4.73;3.70;;;;;;;11.80;100.00;101542.44;5051646;28;20506;-81
2022/08/21 02:37:04;;;;;;;6.20;3.75;;;;;;;11.74;100.00;101540.75;5051870;28;20024;-81
2022/08/21 02:39:31;;;;;;;5.60;3.57;;;;;;;11.70;100.00;101529.69;5051460;28;20108;-81
2022/08/21 02:41:57;;;;;;;5.45;3.53;;;;;;;11.69;100.00;101532.63;5051084;28;20021;-82
2022/08/21 02:44:22;;;;;;;8.20;4.33;;;;;;;11.70;100.00;101539.63;5051523;28;20039;-81
2022/08/21 02:46:47;;;;;;;6.77;3.60;;;;;;;11.70;100.00;101545.81;5051746;28;20356;-81
2022/08/21 02:49:13;;;;;;;8.67;4.00;;;;;;;11.70;100.00;101539.63;5050834;28;20021;-81
2022/08/21 02:51:38;;;;;;;6.17;4.30;;;;;;;11.68;100.00;101539.06;5049825;28;20374;-81
2022/08/21 02:54:03;;;;;;;9.33;3.83;;;;;;;11.66;100.00;101545.50;5051270;28;20397;-81
2022/08/21 02:56:29;;;;;;;6.63;3.87;;;;;;;11.59;100.00;101547.53;5050980;28;20025;-81
2022/08/21 02:58:54;;;;;;;4.75;3.70;;;;;;;11.62;100.00;101547.06;5051108;28;20025;-81
2022/08/21 03:01:20;;;;;;;8.07;3.70;;;;;;;11.58;100.00;101551.28;5051069;28;20021;-81
2022/08/21 03:03:49;;;;;;;8.13;4.23;;;;;;;11.52;100.00;101538.84;5051071;28;20212;-81
2022/08/21 03:06:16;;;;;;;7.30;4.10;;;;;;;11.52;100.00;101542.34;5050966;28;20321;-81
2022/08/21 03:08:44;;;;;;;5.15;3.65;;;;;;;11.43;100.00;101532.28;5050914;28;20036;-81
2022/08/21 03:11:10;;;;;;;5.80;4.10;;;;;;;11.43;100.00;101535.75;5050254;28;20029;-82
2022/08/21 03:13:38;;;;;;;6.10;4.22;;;;;;;11.38;100.00;101533.03;5052064;28;20048;-81
2022/08/21 03:16:04;;;;;;;6.72;4.53;;;;;;;11.38;100.00;101534.88;5050479;28;20086;-79
2022/08/21 03:18:29;;;;;;;13.17;5.00;;;;;;;11.33;100.00;101531.06;5033737;28;20119;-79
2022/08/21 03:20:54;;;;;;;7.53;5.43;;;;;;;11.37;100.00;101534.06;5050595;28;20905;-79
2022/08/21 03:23:20;;;;;;;9.37;5.40;;;;;;;11.29;100.00;101524.56;5051409;28;20033;-80
2022/08/21 03:25:48;;;;;;;11.93;6.10;;;;;;;11.29;100.00;101532.63;5051178;28;20044;-80
2022/08/21 03:28:17;;;;;;;11.52;6.30;;;;;;;11.30;100.00;101534.25;5050815;28;20052;-80
2022/08/21 03:30:44;;;;;;;8.93;5.93;;;;;;;11.30;100.00;101528.88;5049809;28;20025;-80
2022/08/21 03:33:10;;;;;;;13.68;6.88;;;;;;;11.28;100.00;101528.31;5050368;28;20536;-80
2022/08/21 03:35:35;;;;;;;11.88;7.68;;;;;;;11.28;100.00;101527.47;5050679;28;20025;-80
2022/08/21 03:38:00;;;;;;;13.87;8.70;;;;;;;11.32;100.00;101532.09;5050019;28;20150;-80
2022/08/21 03:40:26;;;;;;;11.43;9.47;;;;;;;11.28;100.00;101522.13;5050010;28;20029;-80
2022/08/21 03:42:51;;;;;;;12.53;8.67;;;;;;;11.29;100.00;101532.63;5050120;28;20025;-80
2022/08/21 03:45:19;;;;;;;13.00;8.90;;;;;;;11.26;100.00;101521.53;5050380;28;20491;-80
2022/08/21 03:48:00;;;;;;;12.10;8.75;;;;;;;11.29;100.00;101531.78;5050047;28;20017;-80
2022/08/21 03:50:29;;;;;;;14.52;8.95;;;;;;;11.30;100.00;101523.53;5049910;28;20035;-80
2022/08/21 03:52:56;;;;;;;13.48;8.52;;;;;;;11.30;100.00;101526.19;5049782;28;20025;-80
2022/08/21 03:55:22;;;;;;;16.88;9.60;;;;;;;11.34;100.00;101523.81;5050358;28;20037;-80
2022/08/21 03:57:47;;;;;;;10.48;8.50;;;;;;;11.24;100.00;101521.81;5049578;28;20028;-80
2022/08/21 04:00:14;;;;;;;14.40;8.90;;;;;;;11.26;100.00;101519.69;5049892;28;20052;-81
2022/08/21 04:02:40;;;;;;;13.57;8.40;;;;;;;11.25;100.00;101525.28;5050297;28;20115;-80
2022/08/21 04:05:06;;;;;;;12.85;8.85;;;;;;;11.24;100.00;101519.13;5049861;28;20451;-80
2022/08/21 04:07:32;;;;;;;17.67;8.87;;;;;;;11.23;100.00;101517.50;5050224;28;20032;-81
2022/08/21 04:09:58;;;;;;;16.27;8.85;;;;;;;11.20;100.00;101523.34;5049041;28;20036;-80
2022/08/21 04:12:23;;;;;;;15.27;8.43;;;;;;;11.18;100.00;101525.47;5050223;28;20032;-80
2022/08/21 04:14:51;;;;;;;13.90;8.35;;;;;;;11.10;100.00;101520.53;5031717;28;20121;-80
2022/08/21 04:17:17;;;;;;;16.43;8.57;;;;;;;11.06;100.00;101528.22;5050197;28;20025;-80
2022/08/21 04:19:42;;;;;;;11.10;8.33;;;;;;;11.05;100.00;101531.94;5049469;28;20324;-80
2022/08/21 04:22:07;;;;;;;13.77;8.57;;;;;;;10.98;100.00;101526.75;5049567;28;20033;-80
2022/08/21 04:24:34;;;;;;;21.80;9.07;;;;;;;10.95;100.00;101523.75;5049864;28;20029;-80
2022/08/21 04:26:59;;;;;;;19.87;9.50;;;;;;;10.96;100.00;101533.44;5049819;28;20025;-80
2022/08/21 04:29:25;;;;;;;14.60;8.43;;;;;;;10.91;100.00;101531.47;5049774;28;20283;-81
2022/08/21 04:31:51;;;;;;;14.23;8.47;;;;;;;10.86;100.00;101524.16;5048909;28;20384;-80
2022/08/21 04:34:17;;;;;;;13.07;8.23;;;;;;;10.93;100.00;101544.63;5049745;28;20074;-80
2022/08/21 04:36:42;;;;;;;14.33;8.73;;;;;;;10.88;100.00;101537.31;5049533;28;20104;-80
2022/08/21 04:39:08;;;;;;;13.10;8.65;;;;;;;10.93;100.00;101544.63;5049814;28;20381;-80
2022/08/21 04:41:33;;;;;;;15.13;8.13;;;;;;;10.95;100.00;101545.22;5049314;28;20155;-81
2022/08/21 04:43:59;;;;;;;14.47;9.10;;;;;;;10.93;100.00;101545.47;5049515;28;20060;-81
2022/08/21 04:46:24;;;;;;;18.77;9.03;;;;;;;10.96;100.00;101546.84;5049364;28;20021;-81
2022/08/21 04:48:50;;;;;;;14.85;8.77;;;;;;;10.98;100.00;101542.84;5049380;28;20029;-80
2022/08/21 04:51:24;;;;;;;16.00;8.83;;;;;;;10.89;100.00;101539.75;5049058;28;20112;-81
2022/08/21 04:53:53;;;;;;;15.68;8.57;;;;;;;10.99;100.00;101555.19;5049580;28;20065;-80
2022/08/21 04:56:26;;;;;;;14.80;8.52;;;;;;;11.03;100.00;101550.97;5049573;28;20033;-81
2022/08/21 04:58:55;;;;;;;17.55;8.27;;;;;;;11.02;100.00;101548.56;5049198;28;20086;-80
2022/08/21 05:01:24;;;;;;;14.13;8.05;;;;;;;11.04;100.00;101551.81;5048973;28;20033;-81
2022/08/21 05:03:58;;;;;;;21.85;8.40;;;;;;;11.04;100.00;101549.94;5049179;28;20405;-81
2022/08/21 05:06:23;;;;;;;14.63;8.07;;;;;;;11.12;100.00;101555.97;5049446;28;20022;-80
2022/08/21 05:08:52;;;;;;;16.07;8.00;;;;;;;11.18;100.00;101557.66;5049175;28;20278;-81
2022/08/21 05:11:18;;;;;;;16.85;8.68;;;;;;;11.19;100.00;101557.41;5049094;28;20112;-80
2022/08/21 05:13:44;;;;;;;16.48;8.30;;;;;;;11.27;100.00;101561.56;5048988;28;20025;-80
2022/08/21 05:16:09;;;;;;;13.50;8.10;;;;;;;11.36;100.00;101554.72;5049524;28;20384;-80
2022/08/21 05:18:34;;;;;;;21.73;8.90;;;;;;;11.45;100.00;101565.03;5050488;28;20051;-81
2022/08/21 05:21:00;;;;;;;19.43;8.33;;;;;;;11.50;100.00;101559.75;5052457;28;20052;-81
2022/08/21 05:23:25;;;;;;;13.10;7.10;;;;;;;11.54;100.00;101555.50;5052811;28;20036;-80
2022/08/21 05:25:52;;;;;;;20.27;7.13;;;;;;;11.66;100.00;101561.59;5052775;28;20033;-81
2022/08/21 05:28:17;;;;;;;14.15;6.63;;;;;;;11.75;100.00;101570.06;5052897;28;20036;-81
2022/08/21 05:30:43;;;;;;;11.40;6.67;;;;;;;11.90;100.00;101569.44;5051947;28;20021;-80
2022/08/21 05:33:09;;;;;;;15.07;5.90;;;;;;;11.97;100.00;101569.25;5052524;28;20155;-81
2022/08/21 05:35:35;;;;;;;18.25;6.57;;;;;;;12.07;100.00;101569.41;5053049;28;20036;-81
2022/08/21 05:38:01;;;;;;;11.33;5.77;;;;;;;12.17;100.00;101575.97;5052671;28;20041;-80
2022/08/21 05:40:27;;;;;;;16.43;6.00;;;;;;;12.25;100.00;101576.34;5051999;28;20755;-81
2022/08/21 05:42:55;;;;;;;14.25;5.85;;;;;;;12.34;100.00;101570.53;5052294;28;20036;-80
2022/08/21 05:45:22;;;;;;;17.70;6.15;;;;;;;12.43;100.00;101571.69;5052020;28;20025;-81
2022/08/21 05:47:47;;;;;;;12.70;5.35;;;;;;;12.56;100.00;101573.19;5052306;28;20017;-80
2022/08/21 05:50:12;;;;;;;13.47;5.13;;;;;;;12.63;100.00;101576.50;5033952;28;20052;-81
2022/08/21 05:52:38;;;;;;;15.37;5.47;;;;;;;12.70;100.00;101571.72;5052396;28;20024;-81
2022/08/21 05:55:04;;;;;;;15.73;5.47;;;;;;;12.83;100.00;101573.19;5052120;28;20025;-81
2022/08/21 05:57:31;;;;;;;15.80;4.85;;;;;;;12.92;100.00;101578.13;5052413;28;20110;-80
2022/08/21 05:59:56;;;;;;;12.10;5.40;;;;;;;13.05;100.00;101579.59;5051121;28;20064;-81
2022/08/21 06:02:22;;;;;;;15.30;4.70;;;;;;;13.14;100.00;101576.16;5034309;28;20060;-80
2022/08/21 06:04:47;;;;;;;11.25;4.80;;;;;;;13.20;100.00;101573.50;5033908;28;20090;-81
2022/08/21 06:07:13;;;;;;;17.53;4.93;;;;;;;13.35;100.00;101587.06;5052070;28;20074;-80
2022/08/21 06:09:38;;;;;;;10.97;4.60;;;;;;;13.43;100.00;101578.56;5051619;28;20309;-81
2022/08/21 06:12:05;;;;;;;12.77;4.27;;;;;;;13.48;100.00;101592.06;5051806;28;20580;-80
2022/08/21 06:14:30;;;;;;;13.18;4.43;;;;;;;13.56;100.00;101581.84;5034072;28;20021;-81
2022/08/21 06:17:03;;;;;;;9.43;3.83;;;;;;;13.66;100.00;101587.31;5051652;28;20044;-80
2022/08/21 06:19:28;;;;;;;9.50;4.03;;;;;;;13.74;100.00;101586.03;5052121;28;20430;-81
2022/08/21 06:21:53;;;;;;;14.93;4.10;;;;;;;13.78;100.00;101582.53;5051039;28;20029;-81
2022/08/21 06:24:19;;;;;;;14.57;4.20;;;;;;;13.91;100.00;101588.53;5051787;28;20025;-81
2022/08/21 06:26:44;;;;;;;15.20;4.05;;;;;;;13.97;100.00;101584.78;5051308;28;20025;-81
2022/08/21 06:29:12;;;;;;;9.20;4.23;;;;;;;14.09;100.00;101593.47;5051200;28;20021;-81
2022/08/21 06:31:39;;;;;;;13.20;4.78;;;;;;;14.17;100.00;101585.97;5049864;28;20017;-81
2022/08/21 06:34:04;;;;;;;13.57;4.47;;;;;;;14.20;100.00;101590.81;5052156;28;20028;-81
2022/08/21 06:36:29;;;;;;;14.37;4.60;;;;;;;14.29;100.00;101593.81;5051667;28;20275;-81
2022/08/21 06:38:54;;;;;;;12.87;4.50;;;;;;;14.34;100.00;101597.34;5050544;28;20428;-81
2022/08/21 06:41:20;;;;;;;14.87;4.37;;;;;;;14.37;100.00;101591.44;5050979;28;20025;-81
2022/08/21 06:43:45;;;;;;;15.23;4.20;;;;;;;14.42;100.00;101581.75;5050780;28;20074;-81
2022/08/21 06:46:10;;;;;;;13.60;4.20;;;;;;;14.55;100.00;101597.41;5051509;28;20033;-81
2022/08/21 06:48:36;;;;;;;11.53;4.57;;;;;;;14.65;100.00;101592.03;5051197;28;20055;-81
2022/08/21 06:51:02;;;;;;;11.60;4.40;;;;;;;14.76;100.00;101587.50;5050684;28;20028;-81
2022/08/21 06:53:27;;;;;;;12.30;4.43;;;;;;;14.82;100.00;101589.13;5033266;28;20032;-81
2022/08/21 06:55:53;;;;;;;14.47;4.40;;;;;;;14.93;100.00;101592.66;5050913;28;20024;-81
2022/08/21 06:58:19;;;;;;;11.73;4.33;;;;;;;15.01;100.00;101595.88;5050979;28;20052;-81
2022/08/21 07:00:49;;;;;;;10.68;3.95;;;;;;;15.12;100.00;101592.13;5032742;28;20028;-81
2022/08/21 07:03:20;;;;;;;13.93;4.43;;;;;;;15.20;100.00;101585.38;5050990;28;20029;-81
2022/08/21 07:05:45;;;;;;;12.60;4.63;;;;;;;15.39;99.78;101596.41;5050770;28;20107;-81
2022/08/21 07:08:10;;;;;;;12.50;5.20;;;;;;;15.44;99.66;101581.00;5051006;28;20552;-81
2022/08/21 07:10:36;;;;;;;12.87;4.40;;;;;;;15.59;99.78;101585.59;5050232;28;20025;-81
2022/08/21 07:13:01;;;;;;;16.47;4.77;;;;;;;15.71;99.79;101585.31;5050688;28;20075;-81
2022/08/21 07:15:28;;;;;;;11.97;4.50;;;;;;;15.82;98.89;101590.66;5050644;28;20021;-80
2022/08/21 07:17:53;;;;;;;16.92;5.05;;;;;;;16.01;98.40;101583.59;5050810;28;20074;-81
2022/08/21 07:20:19;;;;;;;14.37;4.53;;;;;;;16.28;98.12;101589.72;5050100;28;20025;-81
2022/08/21 07:22:44;;;;;;;12.55;4.32;;;;;;;16.46;96.92;101582.88;5050425;28;20021;-81
2022/08/21 07:25:09;;;;;;;13.40;4.90;;;;;;;16.64;96.11;101578.69;5050331;28;20388;-81
2022/08/21 07:27:35;;;;;;;14.03;4.23;;;;;;;16.84;95.77;101593.19;5050454;28;20104;-81
2022/08/21 07:30:01;;;;;;;16.90;4.78;;;;;;;17.02;94.66;101583.63;5049479;28;20025;-81
2022/08/21 07:32:26;;;;;;;14.53;4.27;;;;;;;17.05;93.79;101581.13;5050224;28;20090;-81
2022/08/21 07:34:51;;;;;;;15.50;4.30;;;;;;;17.10;93.13;101586.53;5032275;28;20036;-81
2022/08/21 07:37:17;;;;;;;18.00;4.57;;;;;;;17.10;93.21;101586.53;5050702;28;20032;-81
2022/08/21 07:39:42;;;;;;;15.10;3.83;;;;;;;17.06;94.07;101582.75;5050028;28;20481;-81
2022/08/21 07:42:07;;;;;;;12.32;4.07;;;;;;;16.97;93.80;101589.88;5049506;28;20021;-81
2022/08/21 07:44:34;;;;;;;14.33;4.80;;;;;;;16.86;93.52;101589.13;5050579;28;20029;-81
2022/08/21 07:47:00;;;;;;;13.20;4.22;;;;;;;16.91;94.47;101589.06;5031948;28;20477;-81
2022/08/21 07:49:27;;;;;;;20.00;4.40;;;;;;;17.01;95.26;101588.22;5050297;28;20385;-81
2022/08/21 07:51:52;;;;;;;11.43;3.73;;;;;;;17.10;94.96;101586.53;5049428;28;20362;-81
2022/08/21 07:54:18;;;;;;;16.48;4.53;;;;;;;17.26;93.32;101581.75;5050360;28;20108;-81
2022/08/21 07:56:46;;;;;;;14.60;4.20;;;;;;;17.32;92.98;101590.69;5049875;28;20083;-81
2022/08/21 07:59:12;;;;;;;13.93;3.88;;;;;;;17.36;92.93;101585.50;5050227;28;20043;-81
2022/08/21 08:01:37;;;;;;;11.20;3.70;;;;;;;17.39;93.18;101588.41;5049154;28;20472;-81
2022/08/21 08:04:03;;;;;;;15.30;3.67;;;;;;;17.40;92.42;101581.91;5050091;28;20423;-81
2022/08/21 08:06:30;;;;;;;16.98;3.35;;;;;;;17.55;92.34;101590.97;5050153;28;20076;-81
2022/08/21 08:08:55;;;;;;;12.95;3.65;;;;;;;17.71;91.78;101591.63;5049532;28;20025;-81
2022/08/21 08:11:20;;;;;;;12.20;3.17;;;;;;;17.80;90.33;101581.75;5049620;28;20162;-81
2022/08/21 08:13:50;;;;;;;14.20;3.20;;;;;;;17.92;90.17;101588.69;5049751;28;20024;-81
2022/08/21 08:16:16;;;;;;;12.50;3.03;;;;;;;18.04;89.30;101585.63;5050091;28;20112;-81
2022/08/21 08:18:42;;;;;;;16.77;3.78;;;;;;;18.13;88.93;101583.84;5049726;28;20438;-81
2022/08/21 08:21:08;;;;;;;14.95;3.53;;;;;;;18.35;88.68;101593.34;5049573;28;20021;-80
2022/08/21 08:23:33;;;;;;;14.27;3.10;;;;;;;18.59;87.55;101596.81;5049800;28;20021;-80
2022/08/21 08:25:59;;;;;;;17.75;3.20;;;;;;;18.74;86.48;101593.06;5049399;28;20070;-80
2022/08/21 08:28:25;;;;;;;11.63;2.80;;;;;;;18.86;85.61;101594.53;5049931;28;20044;-80
2022/08/21 08:30:51;;;;;;;13.60;3.07;;;;;;;19.02;84.73;101593.19;5048970;28;20151;-80
2022/08/21 08:33:17;;;;;;;13.52;2.60;;;;;;;19.25;84.24;101587.13;5049672;28;20044;-80
2022/08/21 08:35:45;;;;;;;13.43;2.80;;;;;;;19.37;83.22;101587.44;5049371;28;20056;-80
2022/08/21 08:38:10;;;;;;;14.20;2.97;;;;;;;19.57;81.80;101577.31;5049917;28;20369;-80
2022/08/21 08:40:43;;;;;;;13.90;2.60;;;;;;;19.90;80.90;101579.97;5049320;28;20071;-80
2022/08/21 08:43:09;;;;;;;10.10;2.47;;;;;;;20.21;79.37;101576.63;5049769;28;20024;-81
2022/08/21 08:45:38;;;;;;;11.20;2.63;;;;;;;20.36;77.78;101579.00;5049521;28;20017;-80
2022/08/21 08:48:09;;;;;;;12.20;2.83;;;;;;;20.48;77.31;101578.47;5049772;28;20354;-80
2022/08/21 08:50:52;;;;;;;10.68;2.50;;;;;;;20.57;76.92;101579.31;5049142;28;20078;-80
2022/08/21 08:53:23;;;;;;;10.95;3.13;;;;;;;20.72;75.31;101578.16;5050830;28;20116;-80
2022/08/21 08:55:51;;;;;;;10.90;2.30;;;;;;;20.93;73.21;101574.97;5053129;28;20068;-80
2022/08/21 08:58:24;;;;;;;10.80;2.47;;;;;;;21.06;73.25;101570.59;5053567;28;20029;-80
2022/08/21 09:00:52;;;;;;;9.98;2.45;;;;;;;21.26;72.30;101561.06;5052499;28;20024;-80
2022/08/21 09:03:18;;;;;;;10.07;2.40;;;;;;;21.51;69.49;101561.50;5053452;28;20132;-81
2022/08/21 09:05:54;;;;;;;10.10;2.60;;;;;;;21.68;69.22;101554.53;5052761;28;20135;-80
2022/08/21 09:08:38;;;;;;;8.77;2.55;;;;;;;21.83;69.21;101556.81;5053364;28;20032;-80
2022/08/21 09:11:36;;;;;;;10.97;2.10;;;;;;;21.79;68.67;101550.38;5052425;28;20021;-80
2022/08/21 09:14:04;;;;;;;10.90;1.93;;;;;;;21.78;67.56;101544.16;5045272;28;20638;-80
2022/08/21 09:16:47;;;;;;;11.00;2.55;;;;;;;21.98;67.67;101554.75;5053049;28;20037;-80
2022/08/21 09:19:30;;;;;;;9.05;2.45;;;;;;;22.16;65.77;101553.66;5053331;28;20025;-80
2022/08/21 09:22:23;;;;;;;9.20;2.28;;;;;;;22.11;65.63;101551.09;5052147;28;20074;-80
2022/08/21 09:25:13;;;;;;;8.63;2.30;;;;;;;22.05;66.04;101547.72;5052887;28;20071;-80
2022/08/21 09:27:39;;;;;;;7.15;2.15;;;;;;;22.04;64.10;101554.28;5034615;28;20124;-80
2022/08/21 09:30:07;;;;;;;8.20;2.10;;;;;;;21.90;64.72;101543.53;5052526;28;20036;-80
2022/08/21 09:32:34;;;;;;;10.65;2.35;;;;;;;21.90;65.05;101556.34;5051783;28;20134;-81
2022/08/21 09:35:19;;;;;;;9.68;2.40;;;;;;;22.07;65.46;101548.19;5052346;28;20136;-80
2022/08/21 09:37:48;;;;;;;9.57;1.60;;;;;;;22.14;63.07;101561.38;5052388;28;20029;-80
2022/08/21 09:40:42;;;;;;;8.47;1.97;;;;;;;22.05;64.08;101550.44;5051884;28;20310;-81
2022/08/21 09:43:11;;;;;;;9.23;2.20;;;;;;;21.92;64.36;101559.56;5052271;28;20029;-81
2022/08/21 09:45:37;;;;;;;6.88;2.22;;;;;;;21.81;64.24;101563.72;5052440;28;20052;-80
2022/08/21 09:48:10;;;;;;;6.43;2.08;;;;;;;21.72;64.44;101569.16;5053206;28;20053;-80
2022/08/21 09:50:36;;;;;;;8.52;2.15;;;;;;;21.58;64.50;101558.31;5051850;28;20162;-80
2022/08/21 09:53:03;;;;;;;7.95;2.08;;;;;;;21.66;65.35;101556.78;5034366;28;20021;-80
2022/08/21 09:58:31;;;;;;;6.75;1.80;;;;;;;22.01;62.94;101541.28;5052269;28;20076;-80
2022/08/21 10:00:59;;;;;;;10.65;2.00;;;;;;;22.23;60.75;101547.72;5051679;28;20067;-80
2022/08/21 10:03:25;;;;;;;8.32;1.90;;;;;;;22.59;61.36;101548.56;5052311;28;20031;-80
2022/08/21 10:05:54;;;;;;;10.32;2.15;;;;;;;22.79;60.32;101553.38;5051434;28;20037;-80
2022/08/21 10:08:21;;;;;;;7.35;1.92;;;;;;;23.20;59.11;101550.38;5052360;28;20028;-80
2022/08/21 10:10:51;;;;;;;5.75;2.10;;;;;;;23.64;57.57;101548.28;5050838;28;20033;-80
2022/08/21 10:13:26;;;;;;;5.50;1.80;;;;;;;23.93;54.95;101543.91;5052078;28;20017;-81
2022/08/21 10:16:13;;;;;;;6.75;2.22;;;;;;;24.08;56.37;101550.00;5051410;28;20055;-81
2022/08/21 10:18:46;;;;;;;6.80;2.27;;;;;;;24.01;53.94;101543.09;5051701;28;20075;-80
2022/08/21 10:21:23;;;;;;;7.23;2.17;;;;;;;24.30;54.12;101546.13;5051485;28;20283;-80
2022/08/21 10:24:23;;;;;;;9.57;2.10;;;;;;;24.52;55.17;101560.59;5051616;28;20469;-81
2022/08/21 10:27:15;;;;;;;6.25;2.58;;;;;;;24.12;53.51;101556.38;5043640;28;20063;-81
2022/08/21 10:29:58;;;;;;;5.82;2.20;;;;;;;23.75;54.14;101549.50;5051393;28;20033;-80
2022/08/21 10:32:43;;;;;;;7.40;2.03;;;;;;;23.88;54.92;101547.66;5051398;28;20436;-81
2022/08/21 10:35:30;;;;;;;10.20;2.30;;;;;;;24.01;53.92;101543.09;5033268;28;20392;-81
2022/08/21 10:38:20;;;;;;;4.55;1.85;;;;;;;24.34;53.77;101547.84;5051745;28;20024;-81
2022/08/21 10:40:51;;;;;;;5.75;2.08;;;;;;;24.48;52.88;101552.22;5050442;28;20086;-80
2022/08/21 10:43:34;;;;;;;8.88;2.47;;;;;;;24.60;52.97;101555.03;5051403;28;20037;-81
2022/08/21 10:46:35;;;;;;;7.80;2.67;;;;;;;24.68;53.11;101538.84;5050987;28;20099;-80
2022/08/21 10:49:47;;;;;;;8.23;2.70;;;;;;;24.67;51.82;101559.16;5051041;28;20639;-81
2022/08/21 10:52:33;;;;;;;6.68;2.53;;;;;;;24.62;49.83;101550.03;5041142;28;20120;-81
2022/08/21 10:55:12;;;;;;;5.30;2.53;;;;;;;24.89;50.85;101549.81;5050947;28;20107;-81
2022/08/21 10:57:45;;;;;;;7.65;2.60;;;;;;;25.07;49.78;101543.00;5050731;28;20434;-81
2022/08/21 11:00:18;;;;;;;7.32;2.47;;;;;;;25.02;48.14;101542.38;5050675;28;20103;-81
2022/08/21 11:03:05;;;;;;;8.35;2.47;;;;;;;25.04;50.19;101546.41;5050919;28;20060;-80
2022/08/21 11:05:35;;;;;;;7.55;2.40;;;;;;;25.14;49.46;101545.16;5051271;28;20029;-81
2022/08/21 11:08:18;;;;;;;6.78;2.30;;;;;;;25.48;50.38;101548.66;5050674;28;20032;-81
2022/08/21 11:11:09;;;;;;;11.60;2.53;;;;;;;25.58;48.43;101547.38;5050178;28;20043;-81
2022/08/21 11:13:50;;;;;;;8.23;2.40;;;;;;;25.44;47.52;101536.75;5050717;28;20068;-81
2022/08/21 11:16:37;;;;;;;6.33;2.47;;;;;;;25.77;49.80;101543.25;5050520;28;20321;-81
2022/08/21 11:19:19;;;;;;;7.82;2.50;;;;;;;26.00;47.79;101529.84;5050650;28;20059;-81
2022/08/21 11:22:07;;;;;;;6.20;2.67;;;;;;;26.36;47.05;101535.59;5050253;28;20029;-81
2022/08/21 11:24:46;;;;;;;6.93;3.05;;;;;;;26.60;45.32;101534.69;5050695;28;20029;-81
2022/08/21 11:27:26;;;;;;;8.25;3.10;;;;;;;26.60;45.54;101540.19;5050617;28;20040;-81
2022/08/21 11:29:57;;;;;;;5.50;2.60;;;;;;;26.20;45.67;101532.78;5049932;28;20021;-81